sensor_id;sensor_type;location;lat;lon;timestamp;pressure;altitude;pressure_sealevel;temperature;humidity
21359;BME280;13506;50.852;20.632;2023-04-16T00:02:18;97904.25;;;4.53;100.00
21359;BME280;13506;50.852;20.632;2023-04-16T00:04:46;97899.06;;;4.37;100.00
21359;BME280;13506;50.852;20.632;2023-04-16T00:07:14;97902.25;;;4.42;100.00
21359;BME280;13506;50.852;20.632;2023-04-16T00:09:42;97899.22;;;4.50;100.00
21359;BME280;13506;50.852;20.632;2023-04-16T00:12:10;97900.09;;;4.50;100.00
21359;BME280;13506;50.852;20.632;2023-04-16T00:14:38;97900.56;;;4.41;100.00
21359;BME280;13506;50.852;20.632;2023-04-16T00:17:07;97905.31;;;4.33;100.00
21359;BME280;13506;50.852;20.632;2023-04-16T00:19:35;97901.75;;;4.35;100.00
21359;BME280;13506;50.852;20.632;2023-04-16T00:22:03;97902.09;;;4.29;100.00
21359;BME280;13506;50.852;20.632;2023-04-16T00:24:31;97908.50;;;4.38;100.00
21359;BME280;13506;50.852;20.632;2023-04-16T00:26:59;97902.50;;;4.53;100.00
21359;BME280;13506;50.852;20.632;2023-04-16T00:29:27;97906.00;;;4.52;100.00
21359;BME280;13506;50.852;20.632;2023-04-16T00:31:56;97903.25;;;4.55;100.00
21359;BME280;13506;50.852;20.632;2023-04-16T00:34:25;97908.91;;;4.62;100.00
21359;BME280;13506;50.852;20.632;2023-04-16T00:36:53;97904.91;;;4.72;100.00
21359;BME280;13506;50.852;20.632;2023-04-16T00:39:21;97904.06;;;4.72;100.00
21359;BME280;13506;50.852;20.632;2023-04-16T00:41:50;97914.84;;;4.80;100.00
21359;BME280;13506;50.852;20.632;2023-04-16T00:44:17;97913.53;;;4.57;100.00
21359;BME280;13506;50.852;20.632;2023-04-16T00:46:46;97919.28;;;4.30;100.00
21359;BME280;13506;50.852;20.632;2023-04-16T00:49:14;97915.63;;;4.50;100.00
21359;BME280;13506;50.852;20.632;2023-04-16T00:51:44;97926.16;;;4.63;100.00
21359;BME280;13506;50.852;20.632;2023-04-16T00:54:11;97922.94;;;4.58;100.00
21359;BME280;13506;50.852;20.632;2023-04-16T00:56:39;97936.31;;;4.34;100.00
21359;BME280;13506;50.852;20.632;2023-04-16T00:59:08;97926.59;;;4.22;100.00
21359;BME280;13506;50.852;20.632;2023-04-16T01:01:36;97928.69;;;3.99;100.00
21359;BME280;13506;50.852;20.632;2023-04-16T01:04:04;97929.25;;;3.71;100.00
21359;BME280;13506;50.852;20.632;2023-04-16T01:06:34;97932.22;;;3.81;100.00
21359;BME280;13506;50.852;20.632;2023-04-16T01:09:03;97933.22;;;3.78;100.00
21359;BME280;13506;50.852;20.632;2023-04-16T01:11:32;97938.69;;;3.72;100.00
21359;BME280;13506;50.852;20.632;2023-04-16T01:14:00;97937.19;;;3.68;100.00
21359;BME280;13506;50.852;20.632;2023-04-16T01:16:28;97938.09;;;3.50;100.00
21359;BME280;13506;50.852;20.632;2023-04-16T01:18:56;97934.31;;;3.39;100.00
21359;BME280;13506;50.852;20.632;2023-04-16T01:21:26;97935.50;;;3.50;100.00
21359;BME280;13506;50.852;20.632;2023-04-16T01:23:53;97931.19;;;3.33;100.00
21359;BME280;13506;50.852;20.632;2023-04-16T01:26:21;97921.44;;;3.20;100.00
21359;BME280;13506;50.852;20.632;2023-04-16T01:28:49;97932.88;;;3.34;100.00
21359;BME280;13506;50.852;20.632;2023-04-16T01:31:17;97923.88;;;3.41;100.00
21359;BME280;13506;50.852;20.632;2023-04-16T01:33:55;97928.44;;;3.53;100.00
21359;BME280;13506;50.852;20.632;2023-04-16T01:36:25;97935.34;;;3.70;100.00
21359;BME280;13506;50.852;20.632;2023-04-16T01:38:53;97939.25;;;3.95;100.00
21359;BME280;13506;50.852;20.632;2023-04-16T01:41:21;97934.03;;;3.79;100.00
21359;BME280;13506;50.852;20.632;2023-04-16T01:43:49;97926.03;;;3.83;100.00
21359;BME280;13506;50.852;20.632;2023-04-16T01:46:24;97928.56;;;4.01;100.00
21359;BME280;13506;50.852;20.632;2023-04-16T01:48:54;97934.50;;;4.03;100.00
21359;BME280;13506;50.852;20.632;2023-04-16T01:51:23;97932.03;;;4.17;100.00
21359;BME280;13506;50.852;20.632;2023-04-16T01:53:52;97937.78;;;4.22;100.00
21359;BME280;13506;50.852;20.632;2023-04-16T01:56:21;97934.63;;;4.17;100.00
21359;BME280;13506;50.852;20.632;2023-04-16T01:58:49;97941.97;;;4.09;100.00
21359;BME280;13506;50.852;20.632;2023-04-16T02:01:18;97938.66;;;3.90;100.00
21359;BME280;13506;50.852;20.632;2023-04-16T02:03:47;97934.25;;;4.08;100.00
21359;BME280;13506;50.852;20.632;2023-04-16T02:06:16;97939.81;;;4.17;100.00
21359;BME280;13506;50.852;20.632;2023-04-16T02:08:43;97940.19;;;4.10;100.00
21359;BME280;13506;50.852;20.632;2023-04-16T02:11:15;97944.47;;;4.11;100.00
21359;BME280;13506;50.852;20.632;2023-04-16T02:13:43;97946.75;;;3.83;100.00
21359;BME280;13506;50.852;20.632;2023-04-16T02:16:12;97942.38;;;4.01;100.00
21359;BME280;13506;50.852;20.632;2023-04-16T02:18:46;97944.00;;;3.69;100.00
21359;BME280;13506;50.852;20.632;2023-04-16T02:21:15;97949.03;;;3.72;100.00
21359;BME280;13506;50.852;20.632;2023-04-16T02:23:43;97946.16;;;3.78;100.00
21359;BME280;13506;50.852;20.632;2023-04-16T02:26:15;97942.00;;;3.92;100.00
21359;BME280;13506;50.852;20.632;2023-04-16T02:28:43;97944.78;;;4.04;100.00
21359;BME280;13506;50.852;20.632;2023-04-16T02:31:13;97940.38;;;4.22;100.00
21359;BME280;13506;50.852;20.632;2023-04-16T02:33:44;97943.25;;;4.34;100.00
21359;BME280;13506;50.852;20.632;2023-04-16T02:36:12;97949.78;;;4.41;100.00
21359;BME280;13506;50.852;20.632;2023-04-16T02:38:40;97957.13;;;4.49;100.00
21359;BME280;13506;50.852;20.632;2023-04-16T02:41:09;97954.53;;;4.49;100.00
21359;BME280;13506;50.852;20.632;2023-04-16T02:43:38;97954.47;;;4.50;100.00
21359;BME280;13506;50.852;20.632;2023-04-16T02:46:06;97962.00;;;4.55;100.00
21359;BME280;13506;50.852;20.632;2023-04-16T02:48:34;97964.16;;;4.47;100.00
21359;BME280;13506;50.852;20.632;2023-04-16T02:51:03;97970.56;;;4.39;100.00
21359;BME280;13506;50.852;20.632;2023-04-16T02:53:31;97973.41;;;4.35;100.00
21359;BME280;13506;50.852;20.632;2023-04-16T02:55:59;97965.88;;;4.30;100.00
21359;BME280;13506;50.852;20.632;2023-04-16T02:58:27;97970.03;;;4.17;100.00
21359;BME280;13506;50.852;20.632;2023-04-16T03:00:56;97980.09;;;4.05;100.00
21359;BME280;13506;50.852;20.632;2023-04-16T03:03:24;97975.03;;;4.04;100.00
21359;BME280;13506;50.852;20.632;2023-04-16T03:05:52;97978.22;;;3.92;100.00
21359;BME280;13506;50.852;20.632;2023-04-16T03:08:20;97985.50;;;4.01;100.00
21359;BME280;13506;50.852;20.632;2023-04-16T03:10:48;97983.53;;;4.06;100.00
21359;BME280;13506;50.852;20.632;2023-04-16T03:13:16;97984.19;;;4.10;100.00
21359;BME280;13506;50.852;20.632;2023-04-16T03:15:47;97982.47;;;4.10;100.00
21359;BME280;13506;50.852;20.632;2023-04-16T03:18:18;97980.03;;;4.07;100.00
21359;BME280;13506;50.852;20.632;2023-04-16T03:20:50;97992.06;;;4.08;100.00
21359;BME280;13506;50.852;20.632;2023-04-16T03:23:17;98000.72;;;4.07;100.00
21359;BME280;13506;50.852;20.632;2023-04-16T03:25:45;97996.78;;;4.00;100.00
21359;BME280;13506;50.852;20.632;2023-04-16T03:28:17;98000.91;;;4.04;100.00
21359;BME280;13506;50.852;20.632;2023-04-16T03:30:50;97997.25;;;4.08;100.00
21359;BME280;13506;50.852;20.632;2023-04-16T03:33:20;98005.16;;;4.05;100.00
21359;BME280;13506;50.852;20.632;2023-04-16T03:35:54;98010.78;;;4.13;100.00
21359;BME280;13506;50.852;20.632;2023-04-16T03:38:25;98010.78;;;4.13;100.00
21359;BME280;13506;50.852;20.632;2023-04-16T03:40:56;98006.34;;;4.15;100.00
21359;BME280;13506;50.852;20.632;2023-04-16T03:43:24;98014.75;;;4.20;100.00
21359;BME280;13506;50.852;20.632;2023-04-16T03:45:52;98012.28;;;4.17;100.00
21359;BME280;13506;50.852;20.632;2023-04-16T03:48:24;98019.28;;;4.15;100.00
21359;BME280;13506;50.852;20.632;2023-04-16T03:50:53;98019.47;;;4.12;100.00
21359;BME280;13506;50.852;20.632;2023-04-16T03:53:22;98029.97;;;4.09;100.00
21359;BME280;13506;50.852;20.632;2023-04-16T03:55:50;98038.75;;;3.89;100.00
21359;BME280;13506;50.852;20.632;2023-04-16T03:58:19;98044.44;;;3.96;100.00
21359;BME280;13506;50.852;20.632;2023-04-16T04:00:48;98036.00;;;3.92;100.00
21359;BME280;13506;50.852;20.632;2023-04-16T04:03:17;98040.03;;;3.98;100.00
21359;BME280;13506;50.852;20.632;2023-04-16T04:05:49;98040.03;;;3.98;100.00
21359;BME280;13506;50.852;20.632;2023-04-16T04:08:23;98039.88;;;4.01;100.00
21359;BME280;13506;50.852;20.632;2023-04-16T04:10:52;98029.13;;;4.09;100.00
21359;BME280;13506;50.852;20.632;2023-04-16T04:13:22;98035.66;;;4.16;100.00
21359;BME280;13506;50.852;20.632;2023-04-16T04:15:52;98034.69;;;4.01;100.00
21359;BME280;13506;50.852;20.632;2023-04-16T04:18:21;98035.47;;;3.86;100.00
21359;BME280;13506;50.852;20.632;2023-04-16T04:20:50;98044.69;;;3.91;100.00
21359;BME280;13506;50.852;20.632;2023-04-16T04:23:20;98037.59;;;3.95;100.00
21359;BME280;13506;50.852;20.632;2023-04-16T04:25:49;98044.06;;;4.03;100.00
21359;BME280;13506;50.852;20.632;2023-04-16T04:28:17;98056.03;;;4.06;100.00
21359;BME280;13506;50.852;20.632;2023-04-16T04:30:45;98051.59;;;3.91;100.00
21359;BME280;13506;50.852;20.632;2023-04-16T04:33:13;98051.13;;;3.65;100.00
21359;BME280;13506;50.852;20.632;2023-04-16T04:35:42;98044.97;;;3.50;100.00
21359;BME280;13506;50.852;20.632;2023-04-16T04:38:12;98052.34;;;3.58;100.00
21359;BME280;13506;50.852;20.632;2023-04-16T04:40:41;98067.31;;;3.34;100.00
21359;BME280;13506;50.852;20.632;2023-04-16T04:43:09;98069.28;;;2.91;100.00
21359;BME280;13506;50.852;20.632;2023-04-16T04:45:38;98070.81;;;2.95;100.00
21359;BME280;13506;50.852;20.632;2023-04-16T04:48:06;98083.03;;;2.91;100.00
21359;BME280;13506;50.852;20.632;2023-04-16T04:50:34;98075.44;;;3.07;100.00
21359;BME280;13506;50.852;20.632;2023-04-16T04:53:03;98075.72;;;2.82;100.00
21359;BME280;13506;50.852;20.632;2023-04-16T04:55:37;98073.47;;;2.93;100.00
21359;BME280;13506;50.852;20.632;2023-04-16T04:58:06;98079.75;;;2.69;100.00
21359;BME280;13506;50.852;20.632;2023-04-16T05:00:35;98086.75;;;2.86;100.00
21359;BME280;13506;50.852;20.632;2023-04-16T05:03:05;98079.84;;;3.05;100.00
21359;BME280;13506;50.852;20.632;2023-04-16T05:05:33;98081.22;;;2.93;100.00
21359;BME280;13506;50.852;20.632;2023-04-16T05:08:01;98089.06;;;3.11;100.00
21359;BME280;13506;50.852;20.632;2023-04-16T05:10:29;98093.84;;;3.37;100.00
21359;BME280;13506;50.852;20.632;2023-04-16T05:12:57;98095.50;;;3.75;100.00
21359;BME280;13506;50.852;20.632;2023-04-16T05:15:26;98115.97;;;3.62;100.00
21359;BME280;13506;50.852;20.632;2023-04-16T05:17:53;98105.25;;;3.70;100.00
21359;BME280;13506;50.852;20.632;2023-04-16T05:20:22;98097.28;;;3.92;100.00
21359;BME280;13506;50.852;20.632;2023-04-16T05:22:50;98107.31;;;4.15;100.00
21359;BME280;13506;50.852;20.632;2023-04-16T05:25:18;98115.38;;;4.44;100.00
21359;BME280;13506;50.852;20.632;2023-04-16T05:27:46;98105.13;;;4.58;100.00
21359;BME280;13506;50.852;20.632;2023-04-16T05:30:15;98107.38;;;4.82;100.00
21359;BME280;13506;50.852;20.632;2023-04-16T05:32:43;98110.19;;;5.11;100.00
21359;BME280;13506;50.852;20.632;2023-04-16T05:35:11;98099.03;;;5.40;100.00
21359;BME280;13506;50.852;20.632;2023-04-16T05:37:40;98102.69;;;5.68;100.00
21359;BME280;13506;50.852;20.632;2023-04-16T05:40:08;98108.16;;;5.94;100.00
21359;BME280;13506;50.852;20.632;2023-04-16T05:42:36;98119.34;;;6.10;100.00
21359;BME280;13506;50.852;20.632;2023-04-16T05:45:06;98119.34;;;6.10;100.00
21359;BME280;13506;50.852;20.632;2023-04-16T05:47:35;98118.75;;;6.35;100.00
21359;BME280;13506;50.852;20.632;2023-04-16T05:50:03;98129.19;;;6.64;100.00
21359;BME280;13506;50.852;20.632;2023-04-16T05:52:31;98125.94;;;6.75;100.00
21359;BME280;13506;50.852;20.632;2023-04-16T05:54:59;98136.72;;;7.12;99.71
21359;BME280;13506;50.852;20.632;2023-04-16T05:57:27;98148.53;;;7.17;97.93
21359;BME280;13506;50.852;20.632;2023-04-16T05:59:55;98148.59;;;7.30;97.08
21359;BME280;13506;50.852;20.632;2023-04-16T06:02:23;98141.53;;;7.32;97.56
21359;BME280;13506;50.852;20.632;2023-04-16T06:04:52;98141.09;;;7.53;97.50
21359;BME280;13506;50.852;20.632;2023-04-16T06:07:20;98143.22;;;6.76;97.63
21359;BME280;13506;50.852;20.632;2023-04-16T06:09:48;98137.09;;;7.05;97.30
21359;BME280;13506;50.852;20.632;2023-04-16T06:12:16;98141.19;;;7.09;98.38
21359;BME280;13506;50.852;20.632;2023-04-16T06:14:45;98138.59;;;7.09;97.17
21359;BME280;13506;50.852;20.632;2023-04-16T06:17:13;98137.28;;;7.17;96.40
21359;BME280;13506;50.852;20.632;2023-04-16T06:19:41;98136.50;;;7.43;95.77
21359;BME280;13506;50.852;20.632;2023-04-16T06:22:10;98142.16;;;7.36;95.47
21359;BME280;13506;50.852;20.632;2023-04-16T06:24:38;98149.41;;;7.45;95.26
21359;BME280;13506;50.852;20.632;2023-04-16T06:27:06;98149.72;;;7.67;94.92
21359;BME280;13506;50.852;20.632;2023-04-16T06:29:34;98157.19;;;7.86;94.90
21359;BME280;13506;50.852;20.632;2023-04-16T06:32:02;98150.00;;;8.17;95.17
21359;BME280;13506;50.852;20.632;2023-04-16T06:34:31;98154.56;;;8.54;92.56
21359;BME280;13506;50.852;20.632;2023-04-16T06:36:58;98156.13;;;8.56;90.16
21359;BME280;13506;50.852;20.632;2023-04-16T06:39:28;98152.19;;;8.89;89.67
21359;BME280;13506;50.852;20.632;2023-04-16T06:41:56;98152.06;;;9.03;89.81
21359;BME280;13506;50.852;20.632;2023-04-16T06:44:24;98160.25;;;9.36;88.65
21359;BME280;13506;50.852;20.632;2023-04-16T06:46:52;98149.97;;;9.58;86.66
21359;BME280;13506;50.852;20.632;2023-04-16T06:49:21;98158.03;;;9.79;85.56
21359;BME280;13506;50.852;20.632;2023-04-16T06:51:48;98157.22;;;9.79;86.44
21359;BME280;13506;50.852;20.632;2023-04-16T06:54:16;98160.09;;;9.87;84.98
21359;BME280;13506;50.852;20.632;2023-04-16T06:56:46;98154.19;;;10.20;85.09
21359;BME280;13506;50.852;20.632;2023-04-16T06:59:14;98161.75;;;10.12;83.96
21359;BME280;13506;50.852;20.632;2023-04-16T07:01:42;98159.00;;;10.38;83.72
21359;BME280;13506;50.852;20.632;2023-04-16T07:04:11;98174.44;;;10.05;83.87
21359;BME280;13506;50.852;20.632;2023-04-16T07:06:39;98174.00;;;9.87;85.01
21359;BME280;13506;50.852;20.632;2023-04-16T07:09:07;98179.38;;;10.21;82.49
21359;BME280;13506;50.852;20.632;2023-04-16T07:11:34;98189.59;;;9.39;83.67
21359;BME280;13506;50.852;20.632;2023-04-16T07:14:04;98185.16;;;9.89;84.03
21359;BME280;13506;50.852;20.632;2023-04-16T07:16:32;98194.91;;;9.74;84.23
21359;BME280;13506;50.852;20.632;2023-04-16T07:19:00;98193.13;;;10.12;82.54
21359;BME280;13506;50.852;20.632;2023-04-16T07:21:28;98193.25;;;10.46;82.31
21359;BME280;13506;50.852;20.632;2023-04-16T07:23:57;98196.00;;;11.02;82.89
21359;BME280;13506;50.852;20.632;2023-04-16T07:26:25;98201.84;;;11.62;80.39
21359;BME280;13506;50.852;20.632;2023-04-16T07:28:53;98204.72;;;11.25;77.28
21359;BME280;13506;50.852;20.632;2023-04-16T07:31:22;98205.19;;;11.64;76.44
21359;BME280;13506;50.852;20.632;2023-04-16T07:33:50;98207.59;;;11.45;76.56
21359;BME280;13506;50.852;20.632;2023-04-16T07:36:19;98204.72;;;12.03;75.47
21359;BME280;13506;50.852;20.632;2023-04-16T07:38:47;98197.75;;;12.35;74.78
21359;BME280;13506;50.852;20.632;2023-04-16T07:41:14;98200.03;;;12.71;74.34
21359;BME280;13506;50.852;20.632;2023-04-16T07:43:42;98195.03;;;13.10;74.65
21359;BME280;13506;50.852;20.632;2023-04-16T07:46:11;98201.44;;;13.48;73.09
21359;BME280;13506;50.852;20.632;2023-04-16T07:48:41;98201.41;;;13.88;72.01
21359;BME280;13506;50.852;20.632;2023-04-16T07:51:08;98211.59;;;13.72;69.39
21359;BME280;13506;50.852;20.632;2023-04-16T07:53:37;98216.88;;;12.47;70.77
21359;BME280;13506;50.852;20.632;2023-04-16T07:56:05;98215.47;;;12.64;71.97
21359;BME280;13506;50.852;20.632;2023-04-16T07:58:33;98207.53;;;12.75;73.50
21359;BME280;13506;50.852;20.632;2023-04-16T08:01:02;98208.16;;;13.10;69.68
21359;BME280;13506;50.852;20.632;2023-04-16T08:03:30;98217.22;;;13.48;68.39
21359;BME280;13506;50.852;20.632;2023-04-16T08:05:59;98221.47;;;13.79;67.42
21359;BME280;13506;50.852;20.632;2023-04-16T08:08:27;98219.59;;;13.61;67.47
21359;BME280;13506;50.852;20.632;2023-04-16T08:10:55;98215.56;;;13.56;69.21
21359;BME280;13506;50.852;20.632;2023-04-16T08:13:23;98219.56;;;14.01;67.88
21359;BME280;13506;50.852;20.632;2023-04-16T08:15:51;98218.34;;;14.25;66.26
21359;BME280;13506;50.852;20.632;2023-04-16T08:18:19;98231.25;;;14.57;61.80
21359;BME280;13506;50.852;20.632;2023-04-16T08:20:47;98231.22;;;14.96;60.57
21359;BME280;13506;50.852;20.632;2023-04-16T08:23:17;98224.06;;;15.26;59.09
21359;BME280;13506;50.852;20.632;2023-04-16T08:25:44;98231.91;;;15.45;56.54
21359;BME280;13506;50.852;20.632;2023-04-16T08:28:13;98233.00;;;15.52;53.68
21359;BME280;13506;50.852;20.632;2023-04-16T08:30:41;98241.00;;;15.60;52.78
21359;BME280;13506;50.852;20.632;2023-04-16T08:33:11;98239.88;;;15.63;53.03
21359;BME280;13506;50.852;20.632;2023-04-16T08:35:39;98242.72;;;15.79;53.18
21359;BME280;13506;50.852;20.632;2023-04-16T08:38:07;98245.06;;;16.10;52.82
21359;BME280;13506;50.852;20.632;2023-04-16T08:40:39;98240.22;;;16.33;51.71
21359;BME280;13506;50.852;20.632;2023-04-16T08:43:09;98246.44;;;16.32;50.85
21359;BME280;13506;50.852;20.632;2023-04-16T08:45:40;98254.22;;;16.52;50.90
21359;BME280;13506;50.852;20.632;2023-04-16T08:48:11;98249.09;;;16.68;51.69
21359;BME280;13506;50.852;20.632;2023-04-16T08:50:40;98251.41;;;16.89;50.78
21359;BME280;13506;50.852;20.632;2023-04-16T08:53:10;98259.97;;;17.09;50.81
21359;BME280;13506;50.852;20.632;2023-04-16T08:55:48;98267.25;;;16.71;50.40
21359;BME280;13506;50.852;20.632;2023-04-16T08:58:19;98264.69;;;16.97;50.24
21359;BME280;13506;50.852;20.632;2023-04-16T09:00:48;98259.34;;;17.15;49.19
21359;BME280;13506;50.852;20.632;2023-04-16T09:03:17;98267.66;;;17.20;49.82
21359;BME280;13506;50.852;20.632;2023-04-16T09:05:46;98273.75;;;17.47;49.34
21359;BME280;13506;50.852;20.632;2023-04-16T09:08:17;98271.13;;;17.47;48.91
21359;BME280;13506;50.852;20.632;2023-04-16T09:10:48;98266.78;;;17.38;48.59
21359;BME280;13506;50.852;20.632;2023-04-16T09:13:16;98277.94;;;17.06;50.03
21359;BME280;13506;50.852;20.632;2023-04-16T09:15:46;98287.31;;;17.00;50.38
21359;BME280;13506;50.852;20.632;2023-04-16T09:18:14;98278.03;;;16.96;50.53
21359;BME280;13506;50.852;20.632;2023-04-16T09:20:42;98280.50;;;17.15;50.12
21359;BME280;13506;50.852;20.632;2023-04-16T09:23:10;98286.72;;;17.32;49.62
21359;BME280;13506;50.852;20.632;2023-04-16T09:25:38;98285.28;;;17.38;50.07
21359;BME280;13506;50.852;20.632;2023-04-16T09:28:07;98300.13;;;17.31;48.83
21359;BME280;13506;50.852;20.632;2023-04-16T09:30:36;98300.31;;;17.11;49.84
21359;BME280;13506;50.852;20.632;2023-04-16T09:33:15;98308.25;;;16.93;50.11
21359;BME280;13506;50.852;20.632;2023-04-16T09:35:48;98302.06;;;16.84;51.21
21359;BME280;13506;50.852;20.632;2023-04-16T09:38:17;98297.88;;;17.00;51.98
21359;BME280;13506;50.852;20.632;2023-04-16T09:40:45;98301.31;;;17.10;51.17
21359;BME280;13506;50.852;20.632;2023-04-16T09:43:16;98295.47;;;17.24;51.39
21359;BME280;13506;50.852;20.632;2023-04-16T09:45:48;98303.38;;;17.51;50.13
21359;BME280;13506;50.852;20.632;2023-04-16T09:48:28;98295.53;;;17.41;50.54
21359;BME280;13506;50.852;20.632;2023-04-16T09:50:56;98301.25;;;17.54;50.65
21359;BME280;13506;50.852;20.632;2023-04-16T09:53:25;98313.81;;;17.52;50.03
21359;BME280;13506;50.852;20.632;2023-04-16T09:55:56;98315.25;;;17.20;51.33
21359;BME280;13506;50.852;20.632;2023-04-16T09:58:26;98315.41;;;17.19;51.50
21359;BME280;13506;50.852;20.632;2023-04-16T10:00:55;98298.88;;;17.17;50.66
21359;BME280;13506;50.852;20.632;2023-04-16T10:03:30;98303.22;;;17.26;50.96
21359;BME280;13506;50.852;20.632;2023-04-16T10:06:00;98293.91;;;17.40;51.42
21359;BME280;13506;50.852;20.632;2023-04-16T10:08:29;98310.59;;;17.40;49.80
21359;BME280;13506;50.852;20.632;2023-04-16T10:10:57;98304.56;;;17.30;50.90
21359;BME280;13506;50.852;20.632;2023-04-16T10:13:27;98305.09;;;17.34;51.35
21359;BME280;13506;50.852;20.632;2023-04-16T10:15:56;98295.25;;;17.44;50.31
21359;BME280;13506;50.852;20.632;2023-04-16T10:18:25;98304.59;;;17.56;50.75
21359;BME280;13506;50.852;20.632;2023-04-16T10:20:54;98289.72;;;17.63;51.49
21359;BME280;13506;50.852;20.632;2023-04-16T10:23:22;98302.38;;;17.78;49.63
21359;BME280;13506;50.852;20.632;2023-04-16T10:25:50;98301.75;;;17.84;50.26
21359;BME280;13506;50.852;20.632;2023-04-16T10:28:19;98300.66;;;17.95;48.66
21359;BME280;13506;50.852;20.632;2023-04-16T10:30:50;98300.50;;;18.04;49.50
21359;BME280;13506;50.852;20.632;2023-04-16T10:33:20;98301.41;;;18.21;50.34
21359;BME280;13506;50.852;20.632;2023-04-16T10:35:49;98308.53;;;18.29;48.71
21359;BME280;13506;50.852;20.632;2023-04-16T10:38:23;98313.03;;;18.37;48.36
21359;BME280;13506;50.852;20.632;2023-04-16T10:40:58;98304.47;;;17.92;49.15
21359;BME280;13506;50.852;20.632;2023-04-16T10:43:27;98309.59;;;17.68;49.73
21359;BME280;13506;50.852;20.632;2023-04-16T10:45:56;98310.06;;;17.63;50.09
21359;BME280;13506;50.852;20.632;2023-04-16T10:48:24;98315.34;;;17.37;49.97
21359;BME280;13506;50.852;20.632;2023-04-16T10:50:56;98308.78;;;17.67;50.46
21359;BME280;13506;50.852;20.632;2023-04-16T10:53:26;98315.47;;;17.79;49.49
21359;BME280;13506;50.852;20.632;2023-04-16T10:56:01;98316.44;;;17.78;49.62
21359;BME280;13506;50.852;20.632;2023-04-16T10:58:37;98313.25;;;18.01;49.22
21359;BME280;13506;50.852;20.632;2023-04-16T11:01:13;98317.50;;;18.28;48.97
21359;BME280;13506;50.852;20.632;2023-04-16T11:03:43;98317.50;;;18.44;48.61
21359;BME280;13506;50.852;20.632;2023-04-16T11:06:14;98316.53;;;18.45;47.68
21359;BME280;13506;50.852;20.632;2023-04-16T11:08:44;98319.13;;;18.29;48.10
21359;BME280;13506;50.852;20.632;2023-04-16T11:11:12;98323.13;;;18.33;49.27
21359;BME280;13506;50.852;20.632;2023-04-16T11:13:43;98319.84;;;18.39;49.32
21359;BME280;13506;50.852;20.632;2023-04-16T11:16:13;98322.59;;;18.30;48.70
21359;BME280;13506;50.852;20.632;2023-04-16T11:18:44;98321.41;;;18.16;48.67
21359;BME280;13506;50.852;20.632;2023-04-16T11:21:12;98329.28;;;17.99;48.49
21359;BME280;13506;50.852;20.632;2023-04-16T11:23:50;98320.47;;;17.91;49.17
21359;BME280;13506;50.852;20.632;2023-04-16T11:26:26;98321.16;;;17.93;49.05
21359;BME280;13506;50.852;20.632;2023-04-16T11:28:56;98323.03;;;18.09;48.84
21359;BME280;13506;50.852;20.632;2023-04-16T11:31:27;98319.44;;;18.18;48.35
21359;BME280;13506;50.852;20.632;2023-04-16T11:33:55;98328.06;;;18.20;47.54
21359;BME280;13506;50.852;20.632;2023-04-16T11:36:23;98339.28;;;18.14;47.31
21359;BME280;13506;50.852;20.632;2023-04-16T11:39:00;98331.13;;;17.99;48.37
21359;BME280;13506;50.852;20.632;2023-04-16T11:41:29;98330.28;;;17.98;47.90
21359;BME280;13506;50.852;20.632;2023-04-16T11:43:57;98332.31;;;18.13;47.18
21359;BME280;13506;50.852;20.632;2023-04-16T11:46:38;98322.13;;;18.26;47.27
21359;BME280;13506;50.852;20.632;2023-04-16T11:49:06;98330.91;;;18.35;46.99
21359;BME280;13506;50.852;20.632;2023-04-16T11:51:39;98318.50;;;18.35;47.25
21359;BME280;13506;50.852;20.632;2023-04-16T11:54:08;98333.72;;;18.33;46.93
21359;BME280;13506;50.852;20.632;2023-04-16T11:56:36;98327.25;;;18.28;47.80
21359;BME280;13506;50.852;20.632;2023-04-16T11:59:08;98325.47;;;18.44;47.49
21359;BME280;13506;50.852;20.632;2023-04-16T12:01:39;98324.84;;;18.59;47.39
21359;BME280;13506;50.852;20.632;2023-04-16T12:04:07;98336.63;;;18.64;45.97
21359;BME280;13506;50.852;20.632;2023-04-16T12:06:35;98330.81;;;18.10;46.78
21359;BME280;13506;50.852;20.632;2023-04-16T12:09:21;98333.28;;;18.03;47.71
21359;BME280;13506;50.852;20.632;2023-04-16T12:11:50;98330.66;;;17.77;48.37
21359;BME280;13506;50.852;20.632;2023-04-16T12:14:18;98328.50;;;18.07;48.39
21359;BME280;13506;50.852;20.632;2023-04-16T12:16:48;98332.53;;;18.28;47.29
21359;BME280;13506;50.852;20.632;2023-04-16T12:19:17;98337.34;;;18.24;45.69
21359;BME280;13506;50.852;20.632;2023-04-16T12:21:48;98327.13;;;18.37;46.21
21359;BME280;13506;50.852;20.632;2023-04-16T12:24:17;98328.75;;;18.38;45.94
21359;BME280;13506;50.852;20.632;2023-04-16T12:26:51;98320.81;;;18.38;46.04
21359;BME280;13506;50.852;20.632;2023-04-16T12:29:24;98331.41;;;18.38;45.60
21359;BME280;13506;50.852;20.632;2023-04-16T12:31:54;98323.75;;;18.27;45.72
21359;BME280;13506;50.852;20.632;2023-04-16T12:34:22;98321.72;;;18.13;45.15
21359;BME280;13506;50.852;20.632;2023-04-16T12:37:05;98324.38;;;18.13;45.92
21359;BME280;13506;50.852;20.632;2023-04-16T12:39:35;98319.09;;;18.21;45.22
21359;BME280;13506;50.852;20.632;2023-04-16T12:42:03;98317.28;;;18.21;44.94
21359;BME280;13506;50.852;20.632;2023-04-16T12:44:35;98325.06;;;18.23;43.10
21359;BME280;13506;50.852;20.632;2023-04-16T12:47:04;98324.09;;;18.24;43.85
21359;BME280;13506;50.852;20.632;2023-04-16T12:49:33;98321.78;;;18.29;43.39
21359;BME280;13506;50.852;20.632;2023-04-16T12:52:02;98318.16;;;18.30;43.49
21359;BME280;13506;50.852;20.632;2023-04-16T12:54:31;98318.66;;;18.34;42.51
21359;BME280;13506;50.852;20.632;2023-04-16T12:56:59;98313.31;;;18.25;42.10
21359;BME280;13506;50.852;20.632;2023-04-16T12:59:27;98313.66;;;18.22;43.36
21359;BME280;13506;50.852;20.632;2023-04-16T13:01:55;98310.50;;;17.84;43.19